createdAt,value
2022-08-16T00:00:22.598Z,2.55
2022-08-16T00:02:50.637Z,2.67
2022-08-16T00:05:20.053Z,2.30
2022-08-16T00:07:47.390Z,2.40
2022-08-16T00:10:20.682Z,2.58
2022-08-16T00:12:48.616Z,2.60
2022-08-16T00:15:51.576Z,2.35
2022-08-16T00:18:22.306Z,2.17
2022-08-16T00:20:57.358Z,2.22
2022-08-16T00:23:34.522Z,2.45
2022-08-16T00:26:35.476Z,2.10
2022-08-16T00:28:55.099Z,2.10
2022-08-16T00:31:24.085Z,2.20
2022-08-16T00:33:51.642Z,1.73
2022-08-16T00:36:19.866Z,2.20
2022-08-16T00:38:47.679Z,2.10
2022-08-16T00:41:15.508Z,2.20
2022-08-16T00:43:44.558Z,2.08
2022-08-16T00:46:33.885Z,1.90
2022-08-16T00:49:17.231Z,2.58
2022-08-16T00:51:55.177Z,2.08
2022-08-16T00:54:26.092Z,1.90
2022-08-16T00:56:56.644Z,1.63
2022-08-16T00:59:27.940Z,1.52
2022-08-16T01:01:55.331Z,1.48
2022-08-16T01:04:25.956Z,1.50
2022-08-16T01:07:03.036Z,1.70
2022-08-16T01:09:34.106Z,1.60
2022-08-16T01:12:03.658Z,1.27
2022-08-16T01:14:47.492Z,1.45
2022-08-16T01:17:17.387Z,1.40
2022-08-16T01:19:48.781Z,1.65
2022-08-16T01:22:49.837Z,1.00
2022-08-16T01:25:22.780Z,1.17
2022-08-16T01:30:34.177Z,0.98
2022-08-16T01:33:14.519Z,1.00
2022-08-16T01:35:45.568Z,1.10
2022-08-16T01:38:22.699Z,1.10
2022-08-16T01:40:57.978Z,1.08
2022-08-16T01:43:31.093Z,0.90
2022-08-16T01:46:37.125Z,0.80
2022-08-16T01:48:49.727Z,1.00
2022-08-16T01:51:21.547Z,0.90
2022-08-16T01:53:54.705Z,0.90
2022-08-16T01:56:25.208Z,1.00
2022-08-16T01:58:55.290Z,1.00
2022-08-16T02:01:22.901Z,0.80
2022-08-16T02:03:51.798Z,1.30
2022-08-16T02:06:33.578Z,0.90
2022-08-16T02:09:05.203Z,1.10
2022-08-16T02:11:48.135Z,1.00
2022-08-16T02:14:21.308Z,0.85
2022-08-16T02:16:49.663Z,0.90
2022-08-16T02:19:18.709Z,1.17
2022-08-16T02:22:08.297Z,0.90
2022-08-16T02:24:46.019Z,0.90
2022-08-16T02:27:14.424Z,0.80
2022-08-16T02:29:43.042Z,1.00
2022-08-16T02:32:50.819Z,0.80
2022-08-16T02:35:00.667Z,0.80
2022-08-16T02:37:51.521Z,1.00
2022-08-16T02:40:17.888Z,0.88
2022-08-16T02:42:48.076Z,1.00
2022-08-16T02:45:18.553Z,0.90
2022-08-16T02:48:01.818Z,0.93
2022-08-16T02:50:55.330Z,1.20
2022-08-16T02:53:23.447Z,0.88
2022-08-16T02:55:52.428Z,0.80
2022-08-16T02:58:25.121Z,1.10
2022-08-16T03:00:56.027Z,0.90
2022-08-16T03:03:26.298Z,1.20
2022-08-16T03:05:54.120Z,0.80
2022-08-16T03:08:50.921Z,0.80
2022-08-16T03:11:16.653Z,0.80
2022-08-16T03:13:47.648Z,0.80
2022-08-16T03:16:38.525Z,0.77
2022-08-16T03:19:02.312Z,0.70
2022-08-16T03:21:37.356Z,0.80
2022-08-16T03:24:28.454Z,0.90
2022-08-16T03:27:03.143Z,1.00
2022-08-16T03:29:33.210Z,0.77
2022-08-16T03:32:01.934Z,0.75
2022-08-16T03:34:31.019Z,0.77
2022-08-16T03:36:58.624Z,1.17
2022-08-16T03:39:26.171Z,0.93
2022-08-16T03:41:59.599Z,0.70
2022-08-16T03:44:43.349Z,0.85
2022-08-16T03:47:12.799Z,1.00
2022-08-16T03:52:13.784Z,0.85
2022-08-16T03:54:53.663Z,0.90
2022-08-16T03:57:31.504Z,0.93
2022-08-16T04:00:20.626Z,0.90
2022-08-16T04:03:07.692Z,0.90
2022-08-16T04:05:39.968Z,0.90
2022-08-16T04:08:23.147Z,0.82
2022-08-16T04:10:53.440Z,1.10
2022-08-16T04:14:00.154Z,1.05
2022-08-16T04:16:21.905Z,1.10
2022-08-16T04:19:02.283Z,0.95
2022-08-16T04:21:32.335Z,0.82
2022-08-16T04:24:00.594Z,1.10
2022-08-16T04:26:30.692Z,1.00
2022-08-16T04:29:16.414Z,0.85
2022-08-16T04:31:56.670Z,1.00
2022-08-16T04:34:32.463Z,1.05
2022-08-16T04:37:01.229Z,0.90
2022-08-16T04:39:36.714Z,1.00
2022-08-16T04:42:16.123Z,1.08
2022-08-16T04:44:54.566Z,1.00
2022-08-16T04:47:32.967Z,0.82
2022-08-16T04:50:01.899Z,0.88
2022-08-16T04:52:33.393Z,0.65
2022-08-16T04:55:06.383Z,0.73
2022-08-16T04:57:35.096Z,0.75
2022-08-16T05:00:31.328Z,0.80
2022-08-16T05:02:56.185Z,0.88
2022-08-16T05:05:32.726Z,0.73
2022-08-16T05:08:00.789Z,0.80
2022-08-16T05:10:47.767Z,0.80
2022-08-16T05:13:17.778Z,0.80
2022-08-16T05:15:45.808Z,0.75
2022-08-16T05:18:19.019Z,0.90
2022-08-16T05:21:01.192Z,0.80
2022-08-16T05:23:31.682Z,1.02
2022-08-16T05:26:00.068Z,0.80
2022-08-16T05:28:30.841Z,1.20
2022-08-16T05:31:04.658Z,0.70
2022-08-16T05:33:34.117Z,1.00
2022-08-16T05:36:03.741Z,0.90
2022-08-16T05:38:38.909Z,0.63
2022-08-16T05:41:09.391Z,0.88
2022-08-16T05:43:43.160Z,0.88
2022-08-16T05:46:28.860Z,0.93
2022-08-16T05:49:03.802Z,0.80
2022-08-16T05:51:38.979Z,0.90
2022-08-16T05:54:09.730Z,1.00
2022-08-16T05:56:40.200Z,0.90
2022-08-16T05:59:08.619Z,1.00
2022-08-16T06:01:37.916Z,1.08
2022-08-16T06:04:12.847Z,0.90
2022-08-16T06:06:56.865Z,0.90
2022-08-16T06:09:43.758Z,1.10
2022-08-16T06:12:27.384Z,0.95
2022-08-16T06:15:16.898Z,1.17
2022-08-16T06:17:44.710Z,1.25
2022-08-16T06:20:24.205Z,0.98
2022-08-16T06:22:59.017Z,0.90
2022-08-16T06:25:36.053Z,1.10
2022-08-16T06:28:08.919Z,1.20
2022-08-16T06:30:43.925Z,1.17
2022-08-16T06:33:22.416Z,1.30
2022-08-16T06:35:55.060Z,1.00
2022-08-16T06:38:33.572Z,0.95
2022-08-16T06:41:07.141Z,0.90
2022-08-16T06:43:41.986Z,1.00
2022-08-16T06:46:23.310Z,1.00
2022-08-16T06:48:59.260Z,0.93
2022-08-16T06:51:48.333Z,1.20
2022-08-16T06:54:14.376Z,1.10
2022-08-16T06:56:42.831Z,1.13
2022-08-16T06:59:12.486Z,1.10
2022-08-16T07:01:43.256Z,1.50
2022-08-16T07:04:12.393Z,1.58
2022-08-16T07:06:43.964Z,1.85
2022-08-16T07:09:13.469Z,1.40
2022-08-16T07:11:47.420Z,1.50
2022-08-16T07:14:24.350Z,1.60
2022-08-16T07:16:55.470Z,1.65
2022-08-16T07:20:01.641Z,1.30
2022-08-16T07:22:38.637Z,1.48
2022-08-16T07:24:59.474Z,1.40
2022-08-16T07:27:26.618Z,1.80
2022-08-16T07:29:55.768Z,1.60
2022-08-16T07:32:29.238Z,1.40
2022-08-16T07:34:57.089Z,1.70
2022-08-16T07:37:25.037Z,1.27
2022-08-16T07:39:54.694Z,1.17
2022-08-16T07:42:34.709Z,1.55
2022-08-16T07:45:07.556Z,1.20
2022-08-16T07:47:37.396Z,1.10
2022-08-16T07:50:07.679Z,1.33
2022-08-16T07:52:38.828Z,1.58
2022-08-16T07:55:08.008Z,1.25
2022-08-16T07:57:38.166Z,1.40
2022-08-16T08:00:25.745Z,1.10
2022-08-16T08:02:57.023Z,1.30
2022-08-16T08:05:35.730Z,1.30
2022-08-16T08:08:11.756Z,1.10
2022-08-16T08:10:51.604Z,1.20
2022-08-16T08:13:19.002Z,1.05
2022-08-16T08:15:52.776Z,1.17
2022-08-16T08:18:30.328Z,1.23
2022-08-16T08:20:59.295Z,1.17
2022-08-16T08:23:27.984Z,1.33
2022-08-16T08:25:55.980Z,1.25
2022-08-16T08:28:23.350Z,1.30
2022-08-16T08:30:57.007Z,1.20
2022-08-16T08:33:28.145Z,1.40
2022-08-16T08:36:00.856Z,1.40
2022-08-16T08:38:45.387Z,1.10
2022-08-16T08:41:18.381Z,1.40
2022-08-16T08:43:52.141Z,1.50
2022-08-16T08:46:21.717Z,1.48
2022-08-16T08:48:59.435Z,1.63
2022-08-16T08:51:27.693Z,1.63
2022-08-16T08:53:59.366Z,1.75
2022-08-16T08:56:26.667Z,1.33
2022-08-16T08:59:00.064Z,1.30
2022-08-16T09:01:36.659Z,2.00
2022-08-16T09:04:14.358Z,1.42
2022-08-16T09:06:43.904Z,1.33
2022-08-16T09:09:16.752Z,1.42
2022-08-16T09:11:48.346Z,1.30
2022-08-16T09:14:23.687Z,1.15
2022-08-16T09:17:02.696Z,1.27
2022-08-16T09:19:32.307Z,1.27
2022-08-16T09:22:01.257Z,1.20
2022-08-16T09:24:46.388Z,1.10
2022-08-16T09:27:15.932Z,1.05
2022-08-16T09:29:45.442Z,0.80
2022-08-16T09:32:13.072Z,0.82
2022-08-16T09:34:58.201Z,0.70
2022-08-16T09:37:29.824Z,0.70
2022-08-16T09:40:01.261Z,1.10
2022-08-16T09:42:29.999Z,0.82
2022-08-16T09:45:12.658Z,1.00
2022-08-16T09:47:56.475Z,0.85
2022-08-16T09:50:33.244Z,1.05
2022-08-16T09:53:14.776Z,1.17
2022-08-16T09:55:49.284Z,1.10
2022-08-16T09:58:41.279Z,0.90
2022-08-16T10:01:06.344Z,0.80
2022-08-16T10:03:35.738Z,1.25
2022-08-16T10:06:02.948Z,0.82
2022-08-16T10:08:30.005Z,1.20
2022-08-16T10:11:15.686Z,0.80
2022-08-16T10:13:51.732Z,0.90
2022-08-16T10:16:21.853Z,1.00
2022-08-16T10:19:00.842Z,1.00
2022-08-16T10:21:32.454Z,0.90
2022-08-16T10:23:59.788Z,0.90
2022-08-16T10:27:17.754Z,1.08
2022-08-16T10:29:19.867Z,0.80
2022-08-16T10:31:53.586Z,0.80
2022-08-16T10:34:32.058Z,0.80
2022-08-16T10:37:01.145Z,1.02
2022-08-16T10:39:40.681Z,0.90
2022-08-16T10:42:13.391Z,0.90
2022-08-16T10:44:42.447Z,0.90
2022-08-16T10:47:10.275Z,1.00
2022-08-16T10:49:39.402Z,0.80
2022-08-16T10:52:18.183Z,0.80
2022-08-16T10:57:34.766Z,0.77
2022-08-16T11:00:21.209Z,0.77
2022-08-16T11:03:41.711Z,0.80
2022-08-16T11:08:35.852Z,0.90
2022-08-16T11:11:13.025Z,0.60
2022-08-16T11:14:10.797Z,0.90
2022-08-16T11:19:23.950Z,0.98
2022-08-16T11:24:43.321Z,0.93
2022-08-16T11:27:24.151Z,1.00
2022-08-16T11:30:00.243Z,1.08
2022-08-16T11:32:32.232Z,1.17
2022-08-16T11:35:14.732Z,1.00
2022-08-16T11:40:57.160Z,1.10
2022-08-16T11:43:28.667Z,1.30
2022-08-16T11:45:57.727Z,1.20
2022-08-16T11:48:30.531Z,1.20
2022-08-16T11:50:58.263Z,1.05
2022-08-16T11:53:25.719Z,1.20
2022-08-16T11:55:54.587Z,1.23
2022-08-16T11:58:24.408Z,1.38
2022-08-16T12:00:53.308Z,1.08
2022-08-16T12:03:34.353Z,1.10
2022-08-16T12:06:24.881Z,0.85
2022-08-16T12:09:01.075Z,0.80
2022-08-16T12:11:31.937Z,1.13
2022-08-16T12:14:04.609Z,1.27
2022-08-16T12:16:34.194Z,1.77
2022-08-16T12:19:03.437Z,1.25
2022-08-16T12:21:35.955Z,1.10
2022-08-16T12:24:19.558Z,1.10
2022-08-16T12:26:46.897Z,1.00
2022-08-16T12:29:16.334Z,1.00
2022-08-16T12:32:00.685Z,1.25
2022-08-16T12:34:30.712Z,1.00
2022-08-16T12:36:59.806Z,1.05
2022-08-16T12:39:28.874Z,0.95
2022-08-16T12:41:57.818Z,0.93
2022-08-16T12:44:26.319Z,1.10
2022-08-16T12:47:16.817Z,0.90
2022-08-16T12:49:43.805Z,0.98
2022-08-16T12:52:33.087Z,1.27
2022-08-16T12:55:00.636Z,1.02
2022-08-16T12:57:36.555Z,1.10
2022-08-16T13:00:13.101Z,1.10
2022-08-16T13:02:54.376Z,1.08
2022-08-16T13:05:21.984Z,1.10
2022-08-16T13:07:51.772Z,1.02
2022-08-16T13:10:37.310Z,0.88
2022-08-16T13:13:09.288Z,1.00
2022-08-16T13:15:56.800Z,1.00
2022-08-16T13:18:34.574Z,1.00
2022-08-16T13:21:07.663Z,1.10
2022-08-16T13:23:36.395Z,1.10
2022-08-16T13:26:10.903Z,0.80
2022-08-16T13:28:37.989Z,1.20
2022-08-16T13:31:05.914Z,0.80
2022-08-16T13:33:38.507Z,0.90
2022-08-16T13:36:08.418Z,1.13
2022-08-16T13:38:49.300Z,0.90
2022-08-16T13:41:16.588Z,1.00
2022-08-16T13:43:43.740Z,1.02
2022-08-16T13:46:26.265Z,1.30
2022-08-16T13:48:53.662Z,0.85
2022-08-16T13:51:24.198Z,1.10
2022-08-16T13:54:02.778Z,0.95
2022-08-16T13:56:37.606Z,1.20
2022-08-16T13:59:19.842Z,1.10
2022-08-16T14:01:55.987Z,0.90
2022-08-16T14:04:32.141Z,1.20
2022-08-16T14:07:01.209Z,0.85
2022-08-16T14:09:30.435Z,1.00
2022-08-16T14:12:01.078Z,1.00
2022-08-16T14:14:32.011Z,0.80
2022-08-16T14:17:02.171Z,1.35
2022-08-16T14:19:30.240Z,1.00
2022-08-16T14:22:13.989Z,1.15
2022-08-16T14:24:45.266Z,0.95
2022-08-16T14:27:17.080Z,1.02
2022-08-16T14:29:44.862Z,1.30
2022-08-16T14:32:13.082Z,1.10
2022-08-16T14:35:01.370Z,1.15
2022-08-16T14:37:28.535Z,1.20
2022-08-16T14:39:58.474Z,1.23
2022-08-16T14:42:26.514Z,1.10
2022-08-16T14:44:54.059Z,1.20
2022-08-16T14:47:22.765Z,0.98
2022-08-16T14:49:52.410Z,1.20
2022-08-16T14:52:44.598Z,1.30
2022-08-16T14:55:11.694Z,1.05
2022-08-16T14:57:39.692Z,1.38
2022-08-16T15:00:12.104Z,1.20
2022-08-16T15:02:40.549Z,1.30
2022-08-16T15:05:09.589Z,1.20
2022-08-16T15:07:40.146Z,1.20
2022-08-16T15:10:21.710Z,1.20
2022-08-16T15:15:27.435Z,1.10
2022-08-16T15:17:56.981Z,1.05
2022-08-16T15:20:29.163Z,1.00
2022-08-16T15:22:59.160Z,0.90
2022-08-16T15:25:33.430Z,1.08
2022-08-16T15:28:05.531Z,1.15
2022-08-16T15:30:58.484Z,1.20
2022-08-16T15:33:26.183Z,1.20
2022-08-16T15:35:55.444Z,1.20
2022-08-16T15:38:57.435Z,1.20
2022-08-16T15:41:36.840Z,1.20
2022-08-16T15:44:10.776Z,0.90
2022-08-16T15:46:54.618Z,1.10
2022-08-16T15:49:37.086Z,1.10
2022-08-16T15:52:12.327Z,1.20
2022-08-16T15:54:51.492Z,1.10
2022-08-16T15:57:24.696Z,1.00
2022-08-16T15:59:52.501Z,0.93
2022-08-16T16:02:29.172Z,1.10
2022-08-16T16:05:04.304Z,1.10
2022-08-16T16:07:34.668Z,1.00
2022-08-16T16:10:07.838Z,1.00
2022-08-16T16:12:50.968Z,1.20
2022-08-16T16:15:26.740Z,1.10
2022-08-16T16:17:57.239Z,1.20
2022-08-16T16:20:27.953Z,1.20
2022-08-16T16:23:03.550Z,1.00
2022-08-16T16:25:32.478Z,1.05
2022-08-16T16:28:01.035Z,0.93
2022-08-16T16:30:38.000Z,1.30
2022-08-16T16:33:21.437Z,1.10
2022-08-16T16:35:54.941Z,1.20
2022-08-16T16:38:26.507Z,1.20
2022-08-16T16:40:54.622Z,1.30
2022-08-16T16:43:25.820Z,1.00
2022-08-16T16:45:59.077Z,1.02
2022-08-16T16:48:34.505Z,1.10
2022-08-16T16:51:09.930Z,1.00
2022-08-16T16:53:42.704Z,1.10
2022-08-16T16:56:20.435Z,1.17
2022-08-16T16:59:05.136Z,1.20
2022-08-16T17:01:57.715Z,0.90
2022-08-16T17:04:32.881Z,0.90
2022-08-16T17:07:01.907Z,1.00
2022-08-16T17:09:29.904Z,1.10
2022-08-16T17:11:58.589Z,1.10
2022-08-16T17:14:33.593Z,1.13
2022-08-16T17:17:09.411Z,1.30
2022-08-16T17:19:41.313Z,1.30
2022-08-16T17:22:15.073Z,1.10
2022-08-16T17:24:45.185Z,1.13
2022-08-16T17:27:17.678Z,1.30
2022-08-16T17:29:51.347Z,1.20
2022-08-16T17:32:47.509Z,1.10
2022-08-16T17:35:18.219Z,1.40
2022-08-16T17:37:51.886Z,1.35
2022-08-16T17:40:46.080Z,1.20
2022-08-16T17:43:16.756Z,1.30
2022-08-16T17:45:44.225Z,1.30
2022-08-16T17:48:11.761Z,1.60
2022-08-16T17:50:40.116Z,1.33
2022-08-16T17:53:08.011Z,1.10
2022-08-16T17:55:38.535Z,1.15
2022-08-16T17:58:20.022Z,1.55
2022-08-16T18:00:52.473Z,1.20
2022-08-16T18:04:02.555Z,1.40
2022-08-16T18:06:13.650Z,1.50
2022-08-16T18:08:42.707Z,1.20
2022-08-16T18:11:12.190Z,1.30
2022-08-16T18:13:43.495Z,1.63
2022-08-16T18:16:11.979Z,1.70
2022-08-16T18:18:39.015Z,1.38
2022-08-16T18:21:25.029Z,1.40
2022-08-16T18:23:52.074Z,1.50
2022-08-16T18:26:19.122Z,1.60
2022-08-16T18:28:46.248Z,1.30
2022-08-16T18:31:13.313Z,1.40
2022-08-16T18:33:43.677Z,1.50
2022-08-16T18:36:20.144Z,1.50
2022-08-16T18:38:49.114Z,1.75
2022-08-16T18:41:16.261Z,1.50
2022-08-16T18:44:22.256Z,1.50
2022-08-16T18:46:30.470Z,1.30
2022-08-16T18:48:57.510Z,1.33
2022-08-16T18:51:25.583Z,1.15
2022-08-16T18:53:53.352Z,1.00
2022-08-16T18:56:20.533Z,1.35
2022-08-16T18:58:47.682Z,1.17
2022-08-16T19:01:14.911Z,0.90
2022-08-16T19:03:42.226Z,1.00
2022-08-16T19:06:13.553Z,0.98
2022-08-16T19:08:43.676Z,1.00
2022-08-16T19:11:15.337Z,1.10
2022-08-16T19:13:45.959Z,1.15
2022-08-16T19:16:14.188Z,1.33
2022-08-16T19:18:41.436Z,0.90
2022-08-16T19:21:14.632Z,1.35
2022-08-16T19:23:44.220Z,1.02
2022-08-16T19:26:25.790Z,1.30
2022-08-16T19:28:58.413Z,1.10
2022-08-16T19:31:29.340Z,1.10
2022-08-16T19:33:57.102Z,1.30
2022-08-16T19:36:35.266Z,1.33
2022-08-16T19:39:06.472Z,1.20
2022-08-16T19:41:39.080Z,1.17
2022-08-16T19:44:07.052Z,1.00
2022-08-16T19:46:35.012Z,0.90
2022-08-16T19:49:02.814Z,1.10
2022-08-16T19:51:30.565Z,1.00
2022-08-16T19:53:57.609Z,1.00
2022-08-16T19:56:27.134Z,1.20
2022-08-16T20:01:44.447Z,1.10
2022-08-16T20:04:12.905Z,1.17
2022-08-16T20:06:44.530Z,1.00
2022-08-16T20:09:15.216Z,1.00
2022-08-16T20:11:44.682Z,1.00
2022-08-16T20:14:24.181Z,1.42
2022-08-16T20:16:52.484Z,1.25
2022-08-16T20:19:19.992Z,1.00
2022-08-16T20:21:47.075Z,1.02
2022-08-16T20:24:33.007Z,1.10
2022-08-16T20:27:02.244Z,1.10
2022-08-16T20:29:29.770Z,1.10
2022-08-16T20:31:56.941Z,1.20
2022-08-16T20:34:24.086Z,1.30
2022-08-16T20:36:51.191Z,0.90
2022-08-16T20:39:18.359Z,1.10
2022-08-16T20:44:29.950Z,1.05
2022-08-16T20:46:56.950Z,1.00
2022-08-16T20:49:24.005Z,1.48
2022-08-16T20:51:54.825Z,1.05
2022-08-16T20:54:25.976Z,1.20
2022-08-16T20:56:53.218Z,1.00
2022-08-16T20:59:20.582Z,1.20
2022-08-16T21:01:50.561Z,1.00
2022-08-16T21:04:22.692Z,1.10
2022-08-16T21:06:53.941Z,1.00
2022-08-16T21:09:32.812Z,1.13
2022-08-16T21:12:04.960Z,1.00
2022-08-16T21:14:34.380Z,1.17
2022-08-16T21:17:03.029Z,1.33
2022-08-16T21:19:30.316Z,1.40
2022-08-16T21:21:57.700Z,1.40
2022-08-16T21:24:25.645Z,1.00
2022-08-16T21:26:56.013Z,1.50
2022-08-16T21:29:27.880Z,1.10
2022-08-16T21:32:09.732Z,1.30
2022-08-16T21:34:37.019Z,1.20
2022-08-16T21:37:04.623Z,1.17
2022-08-16T21:39:32.336Z,1.17
2022-08-16T21:41:59.794Z,1.30
2022-08-16T21:44:34.367Z,1.30
2022-08-16T21:47:06.360Z,1.10
2022-08-16T21:49:36.963Z,1.23
2022-08-16T21:52:05.454Z,1.05
2022-08-16T21:54:33.310Z,1.30
2022-08-16T21:57:00.596Z,1.00
2022-08-16T21:59:27.896Z,1.35
2022-08-16T22:01:55.131Z,1.15
2022-08-16T22:04:37.626Z,1.10
2022-08-16T22:07:06.161Z,1.20
2022-08-16T22:09:33.391Z,1.30
2022-08-16T22:12:00.431Z,1.10
2022-08-16T22:14:27.467Z,1.20
2022-08-16T22:16:54.594Z,1.40
2022-08-16T22:19:24.432Z,1.10
2022-08-16T22:21:52.091Z,1.10
2022-08-16T22:24:19.190Z,1.42
2022-08-16T22:26:46.177Z,1.30
2022-08-16T22:29:15.178Z,1.52
2022-08-16T22:31:44.234Z,1.40
2022-08-16T22:34:12.351Z,1.60
2022-08-16T22:36:39.818Z,1.23
2022-08-16T22:39:09.824Z,1.38
2022-08-16T22:41:38.363Z,1.30
2022-08-16T22:44:06.832Z,1.30
2022-08-16T22:46:36.816Z,1.20
2022-08-16T22:49:05.924Z,1.33
2022-08-16T22:51:33.057Z,1.40
2022-08-16T22:54:00.477Z,1.20
2022-08-16T22:56:47.530Z,1.30
2022-08-16T22:59:15.226Z,1.83
2022-08-16T23:01:42.464Z,1.45
2022-08-16T23:04:09.623Z,1.67
2022-08-16T23:06:36.820Z,1.33
2022-08-16T23:09:04.246Z,1.40
2022-08-16T23:11:31.417Z,1.70
2022-08-16T23:13:58.565Z,1.40
2022-08-16T23:16:32.686Z,1.35
2022-08-16T23:19:03.667Z,1.20
2022-08-16T23:21:31.328Z,1.08
2022-08-16T23:23:58.612Z,1.42
2022-08-16T23:26:46.083Z,1.20
2022-08-16T23:29:21.141Z,1.45
2022-08-16T23:31:50.801Z,1.25
2022-08-16T23:34:21.310Z,1.10
2022-08-16T23:36:48.413Z,1.20
2022-08-16T23:39:15.632Z,1.30
2022-08-16T23:41:44.818Z,1.40
2022-08-16T23:44:55.214Z,1.30
2022-08-16T23:46:59.340Z,1.30
2022-08-16T23:49:57.855Z,1.55
2022-08-16T23:52:13.661Z,1.60
2022-08-16T23:54:40.744Z,1.63
2022-08-16T23:57:08.650Z,1.50
2022-08-16T23:59:48.554Z,1.55
